Cockrell Hill, Texas
Current Conditions -  °F | °C
As of 8:53 PM on Saturday 25 Oct 2014 (Local Time) from KRBD Reporting Station
Clear Clear  
Wind Chill: 26°   Ceiling: Unl
Heat Index: 26°   Visibility: 10mi
Dew Point: 16°   Wind: 6mph
Humidity: 54%   Direction: 170°S
Pressure: 30.05"   Gusts: NA
Location:  32.7371°N, 96.9045°W
Report Text: KRBD 260153Z 17005KT 10SM CLR 26/16 A3005 RMK AO2 SLP170 T02560156
Loading
Personal Weather Stations






























Interactive Weather Map
Tropical Storm Tracking
New forecast layout! Learn more

10-Day Weather Forecast

Advertisements
Track Severe Weather on mobile